Time;durP1;ratioP1;P1;durP2;ratioP2;P2;SDS_P1;SDS_P2;PMS_P1;PMS_P2;Temp;Humidity;BMP_temperature;BMP_pressure;BME280_temperature;BME280_humidity;BME280_pressure;Samples;Min_cycle;Max_cycle;Signal;HPM_P1;HPM_P2
2021/11/11 00:00:42;;;;;;;75.75;43.65;;;8.90;99.90;;;;;;4774865;29;20050;-83
2021/11/11 00:03:08;;;;;;;77.85;44.10;;;8.90;99.90;;;;;;4773522;29;20103;-82
2021/11/11 00:05:34;;;;;;;85.53;44.08;;;8.90;99.90;;;;;;4770213;29;20034;-83
2021/11/11 00:08:00;;;;;;;77.38;42.47;;;8.90;99.90;;;;;;4756787;29;20051;-83
2021/11/11 00:10:28;;;;;;;85.20;44.15;;;8.90;99.90;;;;;;4771701;29;20050;-82
2021/11/11 00:12:55;;;;;;;76.43;43.20;;;8.90;99.90;;;;;;4788684;29;20057;-83
2021/11/11 00:15:22;;;;;;;75.35;41.90;;;8.90;99.90;;;;;;4772794;29;20061;-83
2021/11/11 00:17:49;;;;;;;75.88;42.35;;;8.90;99.90;;;;;;4790873;29;20074;-84
2021/11/11 00:20:18;;;;;;;70.00;38.42;;;8.90;99.90;;;;;;4760056;29;20410;-82
2021/11/11 00:22:45;;;;;;;70.88;40.70;;;8.90;99.90;;;;;;4772113;29;20098;-83
2021/11/11 00:25:17;;;;;;;77.68;40.42;;;8.90;99.90;;;;;;4762056;29;20046;-84
2021/11/11 00:27:44;;;;;;;72.38;40.95;;;8.90;99.90;;;;;;4757117;29;20078;-83
2021/11/11 00:30:13;;;;;;;71.65;41.45;;;8.90;99.90;;;;;;4773034;29;20046;-82
2021/11/11 00:32:40;;;;;;;71.50;39.13;;;8.90;99.90;;;;;;4764459;29;20046;-83
2021/11/11 00:35:09;;;;;;;68.38;39.35;;;8.90;99.90;;;;;;4739153;29;20050;-83
2021/11/11 00:37:35;;;;;;;66.15;36.92;;;8.90;99.90;;;;;;4788950;29;20060;-82
2021/11/11 00:40:00;;;;;;;70.40;35.92;;;8.90;99.90;;;;;;4772569;29;20075;-83
2021/11/11 00:42:26;;;;;;;60.08;33.95;;;8.90;99.90;;;;;;4761374;29;20744;-84
2021/11/11 00:44:52;;;;;;;62.65;34.88;;;8.90;99.90;;;;;;4762192;29;20042;-82
2021/11/11 00:47:18;;;;;;;64.25;34.30;;;8.80;99.90;;;;;;4759211;29;20134;-82
2021/11/11 00:49:45;;;;;;;62.30;33.85;;;8.80;99.90;;;;;;4743933;29;20050;-83
2021/11/11 00:52:11;;;;;;;64.20;34.40;;;8.80;99.90;;;;;;4786233;29;20070;-84
2021/11/11 00:54:39;;;;;;;69.32;34.40;;;8.80;99.90;;;;;;4770652;29;20042;-84
2021/11/11 00:57:06;;;;;;;57.35;33.80;;;8.80;99.90;;;;;;4775610;29;20046;-84
2021/11/11 00:59:32;;;;;;;61.08;32.30;;;8.80;99.90;;;;;;4762145;29;20531;-83
2021/11/11 01:01:58;;;;;;;59.40;32.05;;;8.80;99.90;;;;;;4758424;29;20134;-82
2021/11/11 01:04:24;;;;;;;66.32;32.55;;;8.80;99.90;;;;;;4773628;29;20057;-84
2021/11/11 01:06:50;;;;;;;59.92;31.95;;;8.70;99.90;;;;;;4773400;29;20133;-82
2021/11/11 01:09:17;;;;;;;63.05;31.25;;;8.70;99.90;;;;;;4787187;29;20046;-82
2021/11/11 01:11:43;;;;;;;63.63;33.53;;;8.70;99.90;;;;;;4762596;29;20050;-82
2021/11/11 01:14:09;;;;;;;74.18;33.38;;;8.70;99.90;;;;;;4760293;29;20074;-82
2021/11/11 01:16:35;;;;;;;62.28;33.47;;;8.70;99.90;;;;;;4774954;29;20054;-82
2021/11/11 01:19:01;;;;;;;66.57;32.97;;;8.60;99.90;;;;;;4749627;29;20152;-82
2021/11/11 01:21:27;;;;;;;64.35;33.17;;;8.60;99.90;;;;;;4790281;29;20047;-84
2021/11/11 01:24:23;;;;;;;;;;;;;;;;;;;;;
2021/11/11 01:27:06;;;;;;;62.92;34.63;;;8.60;99.90;;;;;;4773242;29;20062;-83
2021/11/11 01:29:55;;;;;;;68.00;33.60;;;8.60;99.90;;;;;;4761337;29;20129;-82
2021/11/11 01:32:36;;;;;;;64.07;32.65;;;8.60;99.90;;;;;;4765647;29;22285;-84
2021/11/11 01:35:07;;;;;;;72.82;35.60;;;8.60;99.90;;;;;;4774030;29;20058;-82
2021/11/11 01:37:45;;;;;;;72.32;34.85;;;8.50;99.90;;;;;;4775680;29;20050;-83
2021/11/11 01:40:15;;;;;;;63.72;33.03;;;8.60;99.90;;;;;;4758430;29;20031;-82
2021/11/11 01:42:52;;;;;;;65.05;34.75;;;8.60;99.90;;;;;;4777033;29;20624;-84
2021/11/11 01:45:26;;;;;;;72.95;35.20;;;8.60;99.90;;;;;;4790921;29;20039;-82
2021/11/11 01:47:55;;;;;;;72.15;35.70;;;8.60;99.90;;;;;;4788437;29;20038;-83
2021/11/11 01:50:28;;;;;;;73.18;37.17;;;8.60;99.90;;;;;;4768721;29;20129;-82
2021/11/11 01:52:57;;;;;;;66.65;35.05;;;8.60;99.90;;;;;;4780839;29;20530;-82
2021/11/11 01:55:33;;;;;;;;;;;;;;;;;;;;;
2021/11/11 01:57:59;;;;;;;66.78;35.75;;;8.60;99.90;;;;;;4786423;29;20466;-82
2021/11/11 02:00:32;;;;;;;74.82;37.55;;;8.60;99.90;;;;;;4750935;29;20054;-82
2021/11/11 02:02:59;;;;;;;;;;;8.60;99.90;;;;;;4800573;29;20458;-82
2021/11/11 02:05:26;;;;;;;61.83;34.97;;;8.60;99.90;;;;;;4768884;29;19940;-83
2021/11/11 02:07:52;;;;;;;69.05;35.08;;;8.50;99.90;;;;;;4788531;29;20137;-81
2021/11/11 02:10:30;;;;;;;;;;;;;;;;;;;;;
2021/11/11 02:13:00;;;;;;;70.47;36.38;;;8.60;99.90;;;;;;4795472;29;20059;-82
2021/11/11 02:15:29;;;;;;;68.45;36.30;;;8.60;99.90;;;;;;4747580;29;20649;-84
2021/11/11 02:20:59;;;;;;;;;;;;;;;;;;;;;
2021/11/11 02:23:26;;;;;;;76.13;35.25;;;8.60;99.90;;;;;;4780735;29;20054;-83
2021/11/11 02:25:51;;;;;;;66.93;35.65;;;8.60;99.90;;;;;;4766275;29;20177;-81
2021/11/11 02:28:19;;;;;;;71.40;36.42;;;8.60;99.90;;;;;;4752125;29;20118;-83
2021/11/11 02:30:51;;;;;;;71.32;37.03;;;8.60;99.90;;;;;;4750813;29;20046;-82
2021/11/11 02:33:20;;;;;;;71.15;36.63;;;8.60;99.90;;;;;;4768008;29;20057;-83
2021/11/11 02:35:49;;;;;;;64.75;35.67;;;8.60;99.90;;;;;;4768555;29;20066;-83
2021/11/11 02:38:16;;;;;;;64.82;35.78;;;8.70;99.90;;;;;;4752221;29;20580;-82
2021/11/11 02:40:43;;;;;;;71.50;35.35;;;8.60;99.90;;;;;;4782096;29;20046;-82
2021/11/11 02:43:11;;;;;;;71.22;35.45;;;8.60;99.90;;;;;;4751489;29;20035;-83
2021/11/11 02:45:47;;;;;;;72.22;36.67;;;8.60;99.90;;;;;;4767315;29;20566;-83
2021/11/11 02:48:16;;;;;;;70.65;36.78;;;8.60;99.90;;;;;;4770457;29;20080;-81
2021/11/11 02:50:45;;;;;;;64.07;35.10;;;8.60;99.90;;;;;;4776454;29;20137;-82
2021/11/11 02:53:22;;;;;;;74.80;37.50;;;8.70;99.90;;;;;;4781838;29;20066;-83
2021/11/11 02:55:51;;;;;;;67.35;35.60;;;8.70;99.90;;;;;;4768749;29;20042;-84
2021/11/11 02:58:28;;;;;;;83.05;37.63;;;8.70;99.90;;;;;;4785569;29;20050;-82
2021/11/11 03:01:03;;;;;;;70.47;35.30;;;8.70;99.90;;;;;;4771062;29;20051;-83
2021/11/11 03:03:32;;;;;;;73.20;34.75;;;8.70;99.90;;;;;;4779992;29;20035;-84
2021/11/11 03:05:59;;;;;;;66.43;35.88;;;8.70;99.90;;;;;;4783808;29;21970;-83
2021/11/11 03:08:25;;;;;;;66.35;37.40;;;8.70;99.90;;;;;;4770257;29;20046;-82
2021/11/11 03:10:51;;;;;;;72.30;36.58;;;8.70;99.90;;;;;;4770323;29;20049;-83
2021/11/11 03:13:18;;;;;;;75.65;37.75;;;8.70;99.90;;;;;;4756014;29;20082;-83
2021/11/11 03:15:44;;;;;;;67.30;37.33;;;8.70;99.90;;;;;;4742773;29;20081;-82
2021/11/11 03:18:11;;;;;;;77.72;38.72;;;8.70;99.90;;;;;;4760116;29;20038;-82
2021/11/11 03:20:37;;;;;;;79.10;39.83;;;8.70;99.90;;;;;;4769016;29;20100;-83
2021/11/11 03:23:04;;;;;;;76.35;39.70;;;8.70;99.90;;;;;;4757791;29;20145;-84
2021/11/11 03:25:32;;;;;;;76.07;40.45;;;8.70;99.90;;;;;;4758548;29;20062;-83
2021/11/11 03:28:01;;;;;;;76.10;40.17;;;8.70;99.90;;;;;;4770887;29;20877;-84
2021/11/11 03:30:30;;;;;;;76.95;40.72;;;8.70;99.90;;;;;;4768918;29;20250;-82
2021/11/11 03:32:58;;;;;;;80.85;41.88;;;8.70;99.90;;;;;;4773654;29;20061;-83
2021/11/11 03:35:24;;;;;;;73.00;42.10;;;8.70;99.90;;;;;;4737323;29;20078;-84
2021/11/11 03:37:54;;;;;;;76.47;41.50;;;8.70;99.90;;;;;;4771555;29;20170;-84
2021/11/11 03:40:23;;;;;;;81.63;43.50;;;8.70;99.90;;;;;;4757375;29;20057;-82
2021/11/11 03:42:52;;;;;;;73.95;41.65;;;8.70;99.90;;;;;;4771097;29;20042;-83
2021/11/11 03:45:19;;;;;;;81.93;42.28;;;8.70;99.90;;;;;;4765551;29;20042;-84
2021/11/11 03:47:47;;;;;;;88.90;43.38;;;8.70;99.90;;;;;;4773613;29;20137;-83
2021/11/11 03:50:14;;;;;;;78.85;42.15;;;8.80;99.90;;;;;;4767127;29;20054;-83
2021/11/11 03:52:41;;;;;;;83.35;43.75;;;8.70;99.90;;;;;;4757590;29;20046;-83
2021/11/11 03:55:09;;;;;;;85.32;44.20;;;8.70;99.90;;;;;;4768045;29;20061;-83
2021/11/11 03:57:36;;;;;;;83.63;45.17;;;8.70;99.90;;;;;;4753807;29;20137;-83
2021/11/11 04:00:06;;;;;;;84.43;44.80;;;8.70;99.90;;;;;;4758185;29;20059;-83
2021/11/11 04:02:33;;;;;;;84.15;44.38;;;8.70;99.90;;;;;;4766720;29;20038;-83
2021/11/11 04:05:01;;;;;;;82.57;45.58;;;8.80;99.90;;;;;;4756743;29;20038;-83
2021/11/11 04:07:27;;;;;;;84.57;46.08;;;8.70;99.90;;;;;;4780947;29;20656;-83
2021/11/11 04:09:53;;;;;;;88.63;45.38;;;8.80;99.90;;;;;;4754862;29;20047;-85
2021/11/11 04:12:29;;;;;;;85.03;43.42;;;8.80;99.90;;;;;;4765381;29;20050;-83
2021/11/11 04:15:30;;;;;;;82.05;45.40;;;8.80;99.90;;;;;;4789978;29;20045;-84
2021/11/11 04:18:15;;;;;;;88.47;42.65;;;8.80;99.90;;;;;;4753567;29;20043;-84
2021/11/11 04:20:54;;;;;;;86.68;44.10;;;8.80;99.90;;;;;;4784614;29;20054;-83
2021/11/11 04:23:57;;;;;;;81.47;43.50;;;8.80;99.90;;;;;;4767665;29;20089;-84
2021/11/11 04:26:30;;;;;;;80.68;42.55;;;8.70;99.90;;;;;;4783001;29;20221;-83
2021/11/11 04:29:27;;;;;;;75.57;43.30;;;8.80;99.90;;;;;;4771407;29;20057;-82
2021/11/11 04:32:15;;;;;;;81.65;41.92;;;8.70;99.90;;;;;;4769248;29;20168;-82
2021/11/11 04:34:46;;;;;;;77.18;41.67;;;8.80;99.90;;;;;;4765112;29;20050;-82
2021/11/11 04:37:27;;;;;;;81.55;41.08;;;8.70;99.90;;;;;;4765448;29;20039;-82
2021/11/11 04:43:00;;;;;;;73.40;39.15;;;8.70;99.90;;;;;;4789063;29;20046;-83
2021/11/11 05:04:45;;;;;;;78.53;41.15;;;8.70;99.90;;;;;;4788652;29;20564;-84
2021/11/11 05:07:25;;;;;;;98.57;46.45;;;8.60;99.90;;;;;;4760159;29;20133;-84
2021/11/11 05:10:08;;;;;;;89.68;46.88;;;8.60;99.90;;;;;;4786754;29;21071;-83
2021/11/11 05:12:38;;;;;;;88.63;44.97;;;8.60;99.90;;;;;;4770770;29;20050;-83
2021/11/11 05:15:14;;;;;;;99.97;49.33;;;8.60;99.90;;;;;;4785359;29;20514;-83
2021/11/11 05:17:45;;;;;;;91.25;44.95;;;8.60;99.90;;;;;;4790824;29;21085;-82
2021/11/11 05:20:13;;;;;;;99.63;47.22;;;8.60;99.90;;;;;;4768704;29;20176;-83
2021/11/11 05:22:39;;;;;;;106.95;47.30;;;8.50;99.90;;;;;;4773567;29;20490;-84
2021/11/11 05:25:11;;;;;;;103.45;48.60;;;8.50;99.90;;;;;;4766744;29;21641;-85
2021/11/11 05:28:07;;;;;;;;;;;;;;;;;;;;;
2021/11/11 05:30:45;;;;;;;133.75;53.28;;;8.50;99.90;;;;;;4786250;29;21501;-84
2021/11/11 05:33:27;;;;;;;111.55;54.17;;;8.50;99.90;;;;;;4788719;29;21398;-85
2021/11/11 05:36:00;;;;;;;117.28;56.88;;;8.50;99.90;;;;;;4775972;29;20039;-84
2021/11/11 05:38:26;;;;;;;121.35;55.60;;;8.50;99.90;;;;;;4787901;29;20061;-84
2021/11/11 05:40:57;;;;;;;117.80;56.22;;;8.50;99.90;;;;;;4770598;29;20054;-84
2021/11/11 05:43:23;;;;;;;123.20;57.47;;;8.40;99.90;;;;;;4784417;29;20043;-84
2021/11/11 05:45:52;;;;;;;136.85;61.40;;;8.40;99.90;;;;;;4743201;29;20055;-84
2021/11/11 05:48:18;;;;;;;131.50;56.72;;;8.50;99.90;;;;;;4745874;29;20065;-84
2021/11/11 05:50:47;;;;;;;130.25;57.53;;;8.50;99.90;;;;;;4778789;29;20042;-83
2021/11/11 05:53:14;;;;;;;127.63;59.15;;;8.50;99.90;;;;;;4774772;29;20082;-83
2021/11/11 05:55:40;;;;;;;124.93;59.95;;;8.50;99.90;;;;;;4751795;29;20046;-84
2021/11/11 05:58:06;;;;;;;129.23;60.88;;;8.50;99.90;;;;;;4774634;29;20061;-84
2021/11/11 06:00:38;;;;;;;120.13;56.80;;;8.50;99.90;;;;;;4771286;29;20046;-84
2021/11/11 06:03:32;;;;;;;121.78;58.08;;;8.50;99.90;;;;;;4775729;29;20046;-84
2021/11/11 06:06:08;;;;;;;124.10;58.15;;;8.50;99.90;;;;;;4771429;29;20491;-83
2021/11/11 06:08:37;;;;;;;122.38;58.53;;;8.50;99.90;;;;;;4758543;29;20138;-83
2021/11/11 06:11:05;;;;;;;124.47;59.63;;;8.50;99.90;;;;;;4761439;29;20430;-83
2021/11/11 06:17:38;;;;;;;121.38;54.90;;;8.50;99.90;;;;;;4736499;29;20053;-83
2021/11/11 06:20:30;;;;;;;115.40;56.40;;;8.50;99.90;;;;;;4775798;29;20181;-84
2021/11/11 06:22:57;;;;;;;116.68;56.03;;;8.50;99.90;;;;;;4775373;29;20049;-83
2021/11/11 06:25:23;;;;;;;120.10;56.88;;;8.60;99.90;;;;;;4772371;29;20046;-82
2021/11/11 06:27:49;;;;;;;123.43;57.72;;;8.50;99.90;;;;;;4755285;29;23317;-83
2021/11/11 06:30:18;;;;;;;118.00;56.45;;;8.60;99.90;;;;;;4738450;29;20086;-82
2021/11/11 06:32:44;;;;;;;124.70;56.53;;;8.60;99.90;;;;;;4786054;29;20890;-83
2021/11/11 06:35:10;;;;;;;125.50;53.75;;;8.60;99.90;;;;;;4757624;29;20043;-83
2021/11/11 06:37:41;;;;;;;126.72;57.15;;;8.60;99.90;;;;;;4759190;29;20050;-83
2021/11/11 06:40:19;;;;;;;;;;;;;;;;;;;;;
2021/11/11 06:42:45;;;;;;;123.43;55.03;;;8.60;99.90;;;;;;4791501;29;20094;-83
2021/11/11 06:45:21;;;;;;;116.97;55.22;;;8.70;99.90;;;;;;4758416;29;20171;-84
2021/11/11 06:51:00;;;;;;;121.53;53.30;;;8.70;99.90;;;;;;4775335;29;20061;-83
2021/11/11 06:53:29;;;;;;;121.00;55.20;;;8.70;99.90;;;;;;4770290;29;20274;-82
2021/11/11 06:55:58;;;;;;;115.30;53.80;;;8.70;99.90;;;;;;4776480;29;20049;-84
2021/11/11 06:58:24;;;;;;;123.07;54.42;;;8.70;99.90;;;;;;4770165;29;20054;-83
2021/11/11 07:00:55;;;;;;;122.93;55.60;;;8.70;99.90;;;;;;4789763;29;20054;-83
2021/11/11 07:03:21;;;;;;;119.40;55.67;;;8.70;99.90;;;;;;4772350;29;20050;-83
2021/11/11 07:05:51;;;;;;;112.97;53.60;;;8.70;99.90;;;;;;4774025;29;20046;-84
2021/11/11 07:08:17;;;;;;;126.47;54.67;;;8.80;99.90;;;;;;4759121;29;20060;-84
2021/11/11 07:10:48;;;;;;;119.88;54.92;;;8.80;99.90;;;;;;4774184;29;20050;-84
2021/11/11 07:13:15;;;;;;;120.00;54.45;;;8.80;99.90;;;;;;4791158;29;20054;-82
2021/11/11 07:15:42;;;;;;;120.28;54.40;;;8.80;99.90;;;;;;4776896;29;20047;-84
2021/11/11 07:21:51;;;;;;;111.18;52.85;;;8.80;99.90;;;;;;4750312;30;20071;-82
2021/11/11 07:24:23;;;;;;;101.30;48.00;;;8.80;99.90;;;;;;4694528;30;20184;-82
2021/11/11 07:26:49;;;;;;;117.32;53.30;;;8.80;99.90;;;;;;4770649;29;20054;-82
2021/11/11 07:29:17;;;;;;;126.75;54.88;;;8.90;99.90;;;;;;4759392;29;20754;-82
2021/11/11 07:31:51;;;;;;;118.50;56.42;;;8.90;99.90;;;;;;4775640;29;20125;-83
2021/11/11 07:34:27;;;;;;;118.43;55.42;;;8.90;99.90;;;;;;4774519;29;20046;-83
2021/11/11 07:36:56;;;;;;;126.32;52.90;;;8.90;99.90;;;;;;4756936;29;20122;-84
2021/11/11 07:39:22;;;;;;;117.18;54.70;;;8.90;99.90;;;;;;4758818;29;20142;-81
2021/11/11 07:41:48;;;;;;;105.53;49.17;;;8.90;99.90;;;;;;4774428;29;20034;-83
2021/11/11 07:44:40;;;;;;;115.75;51.40;;;8.90;99.90;;;;;;4776657;29;20578;-82
2021/11/11 07:47:27;;;;;;;99.70;48.60;;;8.90;99.90;;;;;;4807233;29;20054;-83
2021/11/11 07:50:03;;;;;;;109.70;49.85;;;9.00;99.90;;;;;;4776619;29;20074;-82
2021/11/11 07:52:35;;;;;;;99.17;48.03;;;9.00;99.90;;;;;;4792323;29;20057;-82
2021/11/11 07:55:16;;;;;;;106.30;50.88;;;9.00;99.90;;;;;;4778711;29;22031;-83
2021/11/11 07:58:02;;;;;;;101.45;48.08;;;9.00;99.90;;;;;;4777516;29;20046;-83
2021/11/11 08:00:43;;;;;;;94.32;46.78;;;9.00;99.90;;;;;;4790681;29;21419;-83
2021/11/11 08:03:17;;;;;;;105.70;48.85;;;9.00;99.90;;;;;;4776419;29;20333;-85
2021/11/11 08:05:45;;;;;;;92.22;46.97;;;9.10;99.90;;;;;;4788014;29;20086;-84
2021/11/11 08:08:17;;;;;;;101.95;46.83;;;9.00;99.90;;;;;;4742848;29;20169;-83
2021/11/11 08:10:46;;;;;;;97.65;48.03;;;9.10;99.90;;;;;;4789946;29;20086;-83
2021/11/11 08:13:15;;;;;;;99.00;46.30;;;9.10;99.90;;;;;;4758364;29;20595;-83
2021/11/11 08:15:41;;;;;;;83.45;41.75;;;9.10;99.90;;;;;;4789277;29;20050;-82
2021/11/11 08:18:07;;;;;;;98.50;48.28;;;9.10;99.90;;;;;;4758047;29;20050;-83
2021/11/11 08:20:33;;;;;;;100.97;47.25;;;9.10;99.90;;;;;;4744249;29;20046;-83
2021/11/11 08:23:08;;;;;;;95.20;45.80;;;9.10;99.90;;;;;;4786820;29;20050;-82
2021/11/11 08:25:47;;;;;;;104.90;47.78;;;9.10;99.90;;;;;;4772991;29;20049;-82
2021/11/11 08:28:35;;;;;;;101.00;48.38;;;9.10;99.90;;;;;;4771182;29;20061;-83
2021/11/11 08:31:27;;;;;;;94.63;46.92;;;9.20;99.90;;;;;;4787455;29;20046;-83
2021/11/11 08:33:58;;;;;;;100.15;49.05;;;9.20;99.90;;;;;;4774471;29;20039;-82
2021/11/11 08:36:26;;;;;;;86.82;46.88;;;9.20;99.90;;;;;;4766131;29;20219;-81
2021/11/11 08:38:52;;;;;;;89.70;44.47;;;9.20;99.90;;;;;;4766387;29;20038;-82
2021/11/11 08:41:29;;;;;;;89.30;47.00;;;9.10;99.90;;;;;;4774002;29;20432;-83
2021/11/11 08:44:20;;;;;;;89.55;44.80;;;9.20;99.90;;;;;;4803674;29;23971;-82
2021/11/11 08:47:32;;;;;;;92.68;45.30;;;9.20;99.90;;;;;;4779740;29;20468;-83
2021/11/11 08:49:58;;;;;;;86.47;45.10;;;9.20;99.90;;;;;;4783254;24;20121;-84
2021/11/11 08:52:27;;;;;;;97.10;47.05;;;9.20;99.90;;;;;;4792220;29;20136;-83
2021/11/11 08:54:54;;;;;;;86.65;46.22;;;9.20;99.90;;;;;;4799021;29;20061;-83
2021/11/11 08:57:20;;;;;;;94.25;47.20;;;9.20;99.90;;;;;;4796634;29;20037;-82
2021/11/11 08:59:56;;;;;;;93.53;46.90;;;9.20;99.90;;;;;;4801807;29;20081;-86
2021/11/11 09:02:31;;;;;;;89.97;46.08;;;9.20;99.90;;;;;;4792627;29;20074;-82
2021/11/11 09:05:00;;;;;;;94.07;46.80;;;9.30;99.90;;;;;;4778528;29;20034;-84
2021/11/11 09:07:29;;;;;;;92.60;46.10;;;9.20;99.90;;;;;;4760737;29;20047;-84
2021/11/11 09:09:55;;;;;;;90.47;47.55;;;9.30;99.90;;;;;;4760780;29;20062;-83
2021/11/11 09:12:20;;;;;;;88.82;48.15;;;9.30;99.90;;;;;;4786474;29;20046;-84
2021/11/11 09:14:46;;;;;;;87.13;46.47;;;9.30;99.90;;;;;;4785727;29;20049;-82
2021/11/11 09:17:12;;;;;;;100.38;48.72;;;9.30;99.90;;;;;;4772166;29;20125;-82
2021/11/11 09:19:39;;;;;;;105.68;49.05;;;9.40;99.90;;;;;;4772392;29;20461;-82
2021/11/11 09:22:05;;;;;;;91.93;47.92;;;9.40;99.90;;;;;;4766792;29;20038;-82
2021/11/11 09:24:39;;;;;;;100.15;49.30;;;9.40;99.90;;;;;;4768705;29;20030;-83
2021/11/11 09:27:05;;;;;;;107.00;51.22;;;9.40;99.90;;;;;;4769745;29;20121;-82
2021/11/11 09:29:44;;;;;;;103.47;50.88;;;9.40;99.90;;;;;;4767585;29;20172;-83
2021/11/11 09:32:18;;;;;;;109.82;52.97;;;9.40;99.90;;;;;;4768060;29;20200;-84
2021/11/11 09:34:47;;;;;;;107.97;53.50;;;9.50;99.90;;;;;;4771891;29;20038;-83
2021/11/11 09:37:13;;;;;;;111.05;54.08;;;9.50;99.90;;;;;;4781136;29;20050;-84
2021/11/11 09:39:39;;;;;;;104.07;53.05;;;9.40;99.90;;;;;;4751474;29;20073;-83
2021/11/11 09:42:07;;;;;;;118.35;55.85;;;9.50;99.90;;;;;;4775650;29;21031;-83
2021/11/11 09:44:33;;;;;;;111.20;54.90;;;9.60;99.90;;;;;;4760147;29;20042;-82
2021/11/11 09:46:58;;;;;;;113.95;54.28;;;9.60;99.90;;;;;;4788640;29;20053;-83
2021/11/11 09:49:27;;;;;;;117.00;55.38;;;9.60;99.90;;;;;;4769113;29;20159;-83
2021/11/11 09:51:53;;;;;;;116.25;55.78;;;9.60;99.90;;;;;;4768257;29;20046;-84
2021/11/11 09:59:42;;;;;;;117.93;57.33;;;9.70;99.90;;;;;;4784939;29;20046;-83
2021/11/11 10:02:09;;;;;;;117.93;58.00;;;9.80;99.90;;;;;;4780370;29;20102;-84
2021/11/11 10:04:36;;;;;;;111.05;56.60;;;9.80;99.90;;;;;;4784268;29;20141;-86
2021/11/11 10:07:02;;;;;;;121.13;57.05;;;9.80;99.90;;;;;;4762526;29;20514;-84
2021/11/11 10:09:29;;;;;;;117.63;57.47;;;9.80;99.90;;;;;;4810356;29;20074;-85
2021/11/11 10:12:06;;;;;;;119.43;58.28;;;9.90;99.90;;;;;;4767991;29;20047;-86
2021/11/11 10:14:40;;;;;;;117.10;58.42;;;9.80;99.90;;;;;;4792601;29;20488;-85
2021/11/11 10:17:10;;;;;;;125.40;60.08;;;9.80;99.90;;;;;;4781748;29;20069;-86
2021/11/11 10:19:42;;;;;;;117.57;57.67;;;9.80;99.90;;;;;;4773888;29;20062;-86
2021/11/11 10:22:22;;;;;;;115.80;58.22;;;9.90;99.90;;;;;;4779218;29;20050;-85
2021/11/11 10:24:52;;;;;;;116.75;59.90;;;9.90;99.90;;;;;;4790168;29;20512;-87
2021/11/11 10:27:38;;;;;;;123.65;60.20;;;9.90;99.90;;;;;;4794473;29;20047;-84
2021/11/11 10:30:13;;;;;;;114.85;59.38;;;9.90;99.90;;;;;;4778559;29;20046;-86
2021/11/11 10:32:52;;;;;;;116.20;59.13;;;10.00;99.90;;;;;;4788809;29;20046;-84
2021/11/11 10:35:31;;;;;;;121.50;61.00;;;10.00;99.90;;;;;;4776863;29;20434;-85
2021/11/11 10:38:07;;;;;;;119.50;58.78;;;10.00;99.90;;;;;;4779802;29;20126;-87
2021/11/11 10:40:39;;;;;;;116.90;59.63;;;10.00;99.90;;;;;;4782849;29;20188;-84
2021/11/11 10:43:21;;;;;;;110.18;57.53;;;10.00;99.90;;;;;;4791922;29;20046;-86
2021/11/11 10:45:49;;;;;;;123.47;61.03;;;10.00;99.90;;;;;;4782259;29;20057;-84
2021/11/11 10:48:18;;;;;;;130.52;60.78;;;10.00;99.90;;;;;;4780828;29;20480;-84
2021/11/11 10:50:57;;;;;;;122.78;62.53;;;10.10;99.90;;;;;;4783804;29;20042;-87
2021/11/11 10:53:27;;;;;;;120.30;57.47;;;10.10;99.90;;;;;;4792562;29;20397;-84
2021/11/11 10:55:57;;;;;;;111.68;56.40;;;10.20;99.90;;;;;;4805238;29;20047;-85
2021/11/11 10:58:32;;;;;;;108.47;56.22;;;10.20;99.90;;;;;;4778565;29;20043;-85
2021/11/11 11:01:10;;;;;;;117.13;57.65;;;10.20;99.90;;;;;;4791504;29;20054;-84
2021/11/11 11:03:48;;;;;;;113.75;56.33;;;10.20;99.90;;;;;;4779092;29;20128;-86
2021/11/11 11:06:26;;;;;;;115.75;56.90;;;10.20;99.90;;;;;;4793187;29;20074;-86
2021/11/11 11:08:57;;;;;;;113.88;57.90;;;10.20;99.90;;;;;;4780100;29;20172;-86
2021/11/11 11:11:33;;;;;;;106.03;56.33;;;10.20;99.90;;;;;;4782498;29;20092;-85
2021/11/11 11:14:21;;;;;;;115.90;58.53;;;10.20;99.90;;;;;;4774957;29;20039;-86
2021/11/11 11:16:50;;;;;;;114.68;56.75;;;10.30;99.90;;;;;;4778208;29;20161;-86
2021/11/11 11:19:18;;;;;;;107.38;57.75;;;10.30;99.90;;;;;;4775979;29;20085;-85
2021/11/11 11:21:50;;;;;;;114.93;57.35;;;10.20;99.90;;;;;;4767462;29;20046;-85
2021/11/11 11:24:19;;;;;;;113.27;59.33;;;10.30;99.90;;;;;;4777328;29;20058;-86
2021/11/11 11:26:48;;;;;;;105.30;55.97;;;10.30;99.90;;;;;;4776523;29;20053;-87
2021/11/11 11:29:30;;;;;;;108.50;56.60;;;10.30;99.90;;;;;;4782369;29;20053;-85
2021/11/11 11:32:10;;;;;;;116.38;59.05;;;10.30;99.90;;;;;;4778739;29;20042;-85
2021/11/11 11:34:40;;;;;;;116.10;57.55;;;10.30;99.90;;;;;;4776844;29;20103;-85
2021/11/11 11:37:12;;;;;;;110.05;57.83;;;10.30;99.90;;;;;;4781630;29;20047;-84
2021/11/11 11:39:45;;;;;;;112.60;59.60;;;10.30;99.90;;;;;;4782165;29;20043;-84
2021/11/11 11:42:18;;;;;;;114.43;58.97;;;10.30;99.90;;;;;;4780897;29;20071;-85
2021/11/11 11:44:51;;;;;;;129.57;61.78;;;10.30;99.90;;;;;;4782666;29;20050;-86
2021/11/11 11:50:13;;;;;;;;;;;10.30;99.90;;;;;;4793959;29;20078;-82
2021/11/11 11:52:44;;;;;;;121.20;60.50;;;10.30;99.90;;;;;;4783334;29;20303;-83
2021/11/11 11:58:04;;;;;;;130.73;62.92;;;10.30;99.90;;;;;;4765561;29;20406;-86
2021/11/11 12:16:45;;;;;;;142.63;67.40;;;10.50;99.90;;;;;;4776475;29;20042;-85
2021/11/11 12:39:32;;;;;;;173.55;69.13;;;10.60;99.90;;;;;;4812260;29;20085;-86
2021/11/11 12:42:02;;;;;;;162.55;70.00;;;10.60;99.90;;;;;;4794569;29;20050;-86
2021/11/11 12:44:31;;;;;;;162.25;70.93;;;10.60;99.90;;;;;;4782775;29;20051;-86
2021/11/11 12:46:58;;;;;;;182.20;75.55;;;10.60;99.90;;;;;;4797350;29;20047;-86
2021/11/11 12:49:38;;;;;;;187.75;74.38;;;10.70;99.90;;;;;;4755137;29;20046;-86
2021/11/11 12:52:26;;;;;;;181.75;71.72;;;10.60;99.90;;;;;;4781805;29;20034;-85
2021/11/11 12:58:11;;;;;;;;;;;;;;;;;;;;;
2021/11/11 13:00:45;;;;;;;166.48;70.53;;;10.70;99.90;;;;;;4798222;29;20042;-85
2021/11/11 13:03:11;;;;;;;166.95;70.45;;;10.80;99.90;;;;;;4810344;29;20050;-85
2021/11/11 13:05:56;;;;;;;175.52;70.18;;;10.80;99.90;;;;;;4771188;29;20089;-85
2021/11/11 13:08:42;;;;;;;155.38;68.15;;;10.80;99.90;;;;;;4796138;29;20043;-86
2021/11/11 13:11:10;;;;;;;156.57;67.28;;;10.80;99.90;;;;;;4784235;29;20168;-84
2021/11/11 13:13:37;;;;;;;155.68;67.47;;;10.80;99.90;;;;;;4767836;29;20049;-85
2021/11/11 13:16:17;;;;;;;152.55;67.50;;;10.80;99.90;;;;;;4783843;29;20106;-87
2021/11/11 13:18:52;;;;;;;155.35;66.47;;;10.80;99.90;;;;;;4786327;29;20035;-86
2021/11/11 13:22:14;;;;;;;150.68;68.90;;;10.80;99.90;;;;;;4797620;29;20151;-84
2021/11/11 13:28:08;;;;;;;122.97;63.60;;;10.90;99.90;;;;;;4803141;29;20053;-85
2021/11/11 16:26:17;;;;;;;138.45;63.30;;;10.20;99.90;;;;;;4782433;29;20089;-84
2021/11/11 16:31:58;;;;;;;140.53;64.23;;;10.20;99.90;;;;;;4765445;29;20820;-83
2021/11/11 16:34:27;;;;;;;133.93;62.08;;;10.20;99.90;;;;;;4755933;29;20124;-83
2021/11/11 16:37:21;;;;;;;132.98;61.60;;;10.20;99.90;;;;;;4769904;29;20053;-83
2021/11/11 16:39:47;;;;;;;145.80;63.90;;;10.20;99.90;;;;;;4761003;29;20822;-83
2021/11/11 16:42:13;;;;;;;136.73;64.07;;;10.20;99.90;;;;;;4773949;29;20035;-84
2021/11/11 16:44:41;;;;;;;137.48;61.67;;;10.20;99.90;;;;;;4752920;29;20562;-84
2021/11/11 16:47:19;;;;;;;134.20;61.55;;;10.20;99.90;;;;;;4744665;29;20188;-83
2021/11/11 16:49:48;;;;;;;138.75;62.92;;;10.20;99.90;;;;;;4765820;29;20058;-83
2021/11/11 16:52:14;;;;;;;129.23;60.17;;;10.20;99.90;;;;;;4748199;29;20082;-84
2021/11/11 16:54:40;;;;;;;130.73;59.70;;;10.10;99.90;;;;;;4746154;29;20726;-84
2021/11/11 16:57:05;;;;;;;128.05;60.92;;;10.20;99.90;;;;;;4754329;29;20098;-83
2021/11/11 16:59:35;;;;;;;126.35;59.25;;;10.10;99.90;;;;;;4759654;29;20058;-85
2021/11/11 17:02:01;;;;;;;116.10;58.03;;;10.10;99.90;;;;;;4777665;29;20502;-84
2021/11/11 17:04:28;;;;;;;129.52;59.13;;;10.10;99.90;;;;;;4762275;29;20035;-82
2021/11/11 17:06:55;;;;;;;123.90;57.33;;;10.10;99.90;;;;;;4770538;29;20043;-82
2021/11/11 17:09:21;;;;;;;120.78;58.05;;;10.10;99.90;;;;;;4776598;29;20447;-84
2021/11/11 17:11:47;;;;;;;114.43;57.83;;;10.10;99.90;;;;;;4776801;29;20110;-83
2021/11/11 17:14:13;;;;;;;112.05;56.10;;;10.10;99.90;;;;;;4782944;29;20098;-84
2021/11/11 17:16:40;;;;;;;112.68;56.03;;;10.10;99.90;;;;;;4763185;29;20054;-84
2021/11/11 17:19:07;;;;;;;101.90;53.50;;;10.10;99.90;;;;;;4796603;29;20042;-84
2021/11/11 17:21:37;;;;;;;98.68;51.72;;;10.10;99.90;;;;;;4803184;29;20129;-83
2021/11/11 17:24:09;;;;;;;99.68;52.00;;;10.10;99.90;;;;;;4781421;29;20053;-83
2021/11/11 17:26:46;;;;;;;107.07;53.22;;;10.10;99.90;;;;;;4751772;29;20042;-84
2021/11/11 17:29:14;;;;;;;96.22;50.15;;;10.10;99.90;;;;;;4760834;29;20111;-83